Time;durP1;ratioP1;P1;durP2;ratioP2;P2;SDS_P1;SDS_P2;PMS_P1;PMS_P2;Temp;Humidity;BMP_temperature;BMP_pressure;BME280_temperature;BME280_humidity;BME280_pressure;Samples;Min_cycle;Max_cycle;Signal;HPM_P1;HPM_P2
2022/01/03 00:02:24;;;;;;;4.70;1.02;;;7.80;99.90;;;;;;5047992;28;20052;-76
2022/01/03 00:04:50;;;;;;;5.82;1.35;;;7.80;99.90;;;;;;5046667;28;20045;-76
2022/01/03 00:07:16;;;;;;;1.20;1.00;;;7.80;99.90;;;;;;5028242;28;20064;-76
2022/01/03 00:09:42;;;;;;;;;;;7.90;99.90;;;;;;5041312;28;20592;-76
2022/01/03 00:12:08;;;;;;;1.13;1.02;;;8.00;99.90;;;;;;5081946;28;19917;-77
2022/01/03 00:14:34;;;;;;;3.25;1.30;;;8.10;99.90;;;;;;5043954;28;20057;-77
2022/01/03 00:17:00;;;;;;;9.52;1.88;;;8.10;99.90;;;;;;5045021;28;20036;-76
2022/01/03 00:19:26;;;;;;;3.75;2.03;;;8.20;99.90;;;;;;5046222;28;20048;-76
2022/01/03 00:21:56;;;;;;;1.98;1.15;;;8.30;99.90;;;;;;5048139;28;20072;-77
2022/01/03 00:24:31;;;;;;;1.15;1.05;;;8.40;99.90;;;;;;5041308;28;20045;-77
2022/01/03 00:27:01;;;;;;;7.30;1.70;;;8.40;99.90;;;;;;5048145;28;20121;-77
2022/01/03 00:29:33;;;;;;;1.27;1.02;;;8.40;99.90;;;;;;5047054;28;20122;-76
2022/01/03 00:31:59;;;;;;;3.70;1.20;;;8.40;99.90;;;;;;5035985;28;20124;-76
2022/01/03 00:34:27;;;;;;;0.88;0.85;;;8.50;99.90;;;;;;5040651;28;20048;-78
2022/01/03 00:36:57;;;;;;;3.08;1.35;;;8.40;99.90;;;;;;5025596;28;20102;-78
2022/01/03 00:39:22;;;;;;;4.00;1.23;;;8.50;99.90;;;;;;5030354;28;20111;-76
2022/01/03 00:41:49;;;;;;;3.97;1.30;;;8.60;99.90;;;;;;5031052;28;20124;-79
2022/01/03 00:44:15;;;;;;;3.22;1.48;;;8.70;99.90;;;;;;5049178;28;20068;-78
2022/01/03 00:46:43;;;;;;;1.50;0.70;;;8.70;99.90;;;;;;5061421;28;20076;-76
2022/01/03 00:49:09;;;;;;;1.02;0.93;;;8.80;99.90;;;;;;5062620;28;20088;-78
2022/01/03 00:51:35;;;;;;;1.90;1.35;;;8.80;99.90;;;;;;5066334;28;20469;-77
2022/01/03 00:54:01;;;;;;;;;;;8.80;99.90;;;;;;5064647;28;20402;-78
2022/01/03 00:56:28;;;;;;;6.60;1.85;;;8.80;99.90;;;;;;5041161;28;19920;-76
2022/01/03 00:59:30;;;;;;;4.63;1.50;;;8.80;99.90;;;;;;5023657;28;20721;-77
2022/01/03 01:02:00;;;;;;;3.53;1.33;;;8.80;99.90;;;;;;5044473;28;20037;-77
2022/01/03 01:04:26;;;;;;;1.48;0.98;;;8.80;99.90;;;;;;5065450;28;20124;-76
2022/01/03 01:06:54;;;;;;;12.02;1.73;;;8.90;99.90;;;;;;5048544;28;20464;-77
2022/01/03 01:09:22;;;;;;;5.53;1.77;;;8.80;99.90;;;;;;5051085;28;20059;-79
2022/01/03 01:11:51;;;;;;;2.78;1.38;;;8.80;99.90;;;;;;5046421;28;20106;-79
2022/01/03 01:14:17;;;;;;;4.93;1.30;;;8.80;99.90;;;;;;5047153;28;20037;-78
2022/01/03 01:16:43;;;;;;;4.43;1.52;;;8.80;99.90;;;;;;5029455;28;20125;-78
2022/01/03 01:19:09;;;;;;;2.55;1.20;;;8.90;99.90;;;;;;5029790;28;20065;-78
2022/01/03 01:21:35;;;;;;;5.55;1.48;;;8.90;99.90;;;;;;5044048;28;20517;-76
2022/01/03 01:24:01;;;;;;;11.48;2.08;;;8.80;99.90;;;;;;5056161;28;20041;-78
2022/01/03 01:29:12;;;;;;;2.15;1.30;;;8.90;99.90;;;;;;5048670;28;20095;-76
2022/01/03 01:31:45;;;;;;;10.13;1.88;;;8.90;99.90;;;;;;5012529;28;20467;-75
2022/01/03 01:34:15;;;;;;;3.83;1.45;;;9.00;99.90;;;;;;5047646;28;20049;-78
2022/01/03 01:36:42;;;;;;;3.42;1.70;;;8.90;99.90;;;;;;5042031;28;20044;-77
2022/01/03 01:39:10;;;;;;;5.47;1.42;;;9.00;99.90;;;;;;5046472;28;20395;-77
2022/01/03 01:41:41;;;;;;;1.83;1.50;;;9.00;99.90;;;;;;5074113;28;20029;-76
2022/01/03 01:44:09;;;;;;;6.45;1.70;;;9.00;99.90;;;;;;5042939;28;20041;-78
2022/01/03 01:46:35;;;;;;;1.70;0.85;;;9.00;99.90;;;;;;5035395;28;20395;-80
2022/01/03 01:49:05;;;;;;;;;;;9.00;99.90;;;;;;5018130;28;20033;-76
2022/01/03 01:51:36;;;;;;;13.45;1.40;;;8.90;99.90;;;;;;5076216;28;19923;-76
2022/01/03 01:54:04;;;;;;;6.25;1.83;;;9.00;99.90;;;;;;5051772;28;20045;-78
2022/01/03 01:57:02;;;;;;;8.95;2.13;;;8.90;99.90;;;;;;5086386;28;20051;-77
2022/01/03 01:59:36;;;;;;;6.45;2.13;;;8.90;99.90;;;;;;5040763;28;20106;-78
2022/01/03 02:02:05;;;;;;;2.97;1.00;;;9.00;99.90;;;;;;5036823;28;20053;-78
2022/01/03 02:05:01;;;;;;;3.08;1.38;;;9.00;99.90;;;;;;5052123;28;20048;-77
2022/01/03 02:07:45;;;;;;;3.22;1.20;;;9.10;99.90;;;;;;5053409;28;20041;-77
2022/01/03 02:10:14;;;;;;;10.23;2.40;;;9.00;99.90;;;;;;5043973;28;20045;-76
2022/01/03 02:12:41;;;;;;;8.57;1.80;;;9.00;99.90;;;;;;5059675;28;20068;-77
2022/01/03 02:15:14;;;;;;;2.47;1.52;;;9.10;99.90;;;;;;5045988;28;20107;-78
2022/01/03 02:17:40;;;;;;;5.72;2.05;;;9.20;99.90;;;;;;5052910;28;20055;-76
2022/01/03 02:20:15;;;;;;;14.73;2.35;;;9.10;99.90;;;;;;5034702;28;20040;-76
2022/01/03 02:22:42;;;;;;;2.80;1.35;;;9.10;99.90;;;;;;5054556;28;20076;-79
2022/01/03 02:25:10;;;;;;;3.00;1.48;;;9.20;99.90;;;;;;5049218;28;20041;-77
2022/01/03 02:27:37;;;;;;;1.38;1.10;;;9.30;99.90;;;;;;5050511;28;20057;-78
2022/01/03 02:30:10;;;;;;;6.03;1.67;;;9.30;99.90;;;;;;5057670;28;20041;-76
2022/01/03 02:32:36;;;;;;;6.55;1.80;;;9.30;99.90;;;;;;5053511;28;20036;-76
2022/01/03 02:35:02;;;;;;;7.07;1.90;;;9.30;99.90;;;;;;5050818;28;20078;-76
2022/01/03 02:37:28;;;;;;;4.30;1.73;;;9.30;99.90;;;;;;5052132;28;20505;-77
2022/01/03 02:39:54;;;;;;;5.88;1.33;;;9.40;99.90;;;;;;5080874;28;20037;-78
2022/01/03 02:42:23;;;;;;;6.72;1.52;;;9.30;99.90;;;;;;5052770;28;20045;-78
2022/01/03 02:45:01;;;;;;;8.85;1.35;;;9.30;99.90;;;;;;5040869;28;20415;-77
2022/01/03 02:47:27;;;;;;;6.03;2.08;;;9.30;99.90;;;;;;5043928;28;20045;-77
2022/01/03 02:49:53;;;;;;;7.43;1.98;;;9.20;99.90;;;;;;5040999;28;20098;-79
2022/01/03 02:52:20;;;;;;;3.95;1.65;;;9.30;99.90;;;;;;5033721;28;20037;-75
2022/01/03 02:54:47;;;;;;;3.30;1.63;;;9.30;99.90;;;;;;5030075;28;20795;-77
2022/01/03 02:57:13;;;;;;;5.38;1.52;;;9.40;99.90;;;;;;5071495;28;20053;-79
2022/01/03 02:59:39;;;;;;;11.82;2.33;;;9.30;99.90;;;;;;5050118;28;20040;-77
2022/01/03 03:02:05;;;;;;;8.35;1.45;;;9.30;99.90;;;;;;5037461;28;20043;-77
2022/01/03 03:04:31;;;;;;;2.55;1.38;;;9.30;99.90;;;;;;5051459;28;20332;-77
2022/01/03 03:06:57;;;;;;;1.80;1.20;;;9.20;99.90;;;;;;5051681;28;20116;-78
2022/01/03 03:09:23;;;;;;;7.22;1.30;;;9.20;99.90;;;;;;5046603;28;20120;-76
2022/01/03 03:11:48;;;;;;;4.15;1.83;;;9.20;99.90;;;;;;5046584;28;20047;-75
2022/01/03 03:14:14;;;;;;;6.95;1.75;;;9.20;99.90;;;;;;5052140;28;20502;-76
2022/01/03 03:16:41;;;;;;;7.28;2.10;;;9.20;99.90;;;;;;5047141;28;20397;-77
2022/01/03 03:19:09;;;;;;;7.15;2.00;;;9.10;99.90;;;;;;5042777;28;20053;-77
2022/01/03 03:21:35;;;;;;;6.95;2.10;;;9.10;99.90;;;;;;5053217;28;20082;-76
2022/01/03 03:24:00;;;;;;;4.25;1.00;;;9.10;99.90;;;;;;5050805;28;20440;-78
2022/01/03 03:26:26;;;;;;;6.18;1.75;;;9.00;99.90;;;;;;5046826;28;20049;-75
2022/01/03 03:28:53;;;;;;;6.10;1.85;;;9.00;99.90;;;;;;5047197;28;20073;-77
2022/01/03 03:31:20;;;;;;;7.93;1.35;;;9.00;99.90;;;;;;5049487;28;20056;-76
2022/01/03 03:33:45;;;;;;;2.30;1.10;;;8.90;99.90;;;;;;5048425;28;20111;-76
2022/01/03 03:36:11;;;;;;;17.42;2.65;;;8.90;99.90;;;;;;5049746;28;20064;-77
2022/01/03 03:38:37;;;;;;;5.28;2.10;;;8.90;99.90;;;;;;5048244;28;20040;-76
2022/01/03 03:41:02;;;;;;;5.05;1.35;;;8.80;99.90;;;;;;5045648;28;20037;-77
2022/01/03 03:43:30;;;;;;;7.53;1.38;;;8.90;99.90;;;;;;5046754;28;20049;-77
2022/01/03 03:45:56;;;;;;;6.15;1.77;;;8.70;99.90;;;;;;5047049;28;20041;-76
2022/01/03 03:48:22;;;;;;;7.93;1.95;;;8.60;99.90;;;;;;5031548;28;20052;-78
2022/01/03 03:50:48;;;;;;;7.30;1.52;;;8.70;99.90;;;;;;5046676;28;20037;-77
2022/01/03 03:53:14;;;;;;;3.90;1.38;;;8.60;99.90;;;;;;5042748;28;20549;-78
2022/01/03 03:55:40;;;;;;;3.30;1.80;;;8.70;99.90;;;;;;5051226;28;20053;-77
2022/01/03 03:58:06;;;;;;;2.08;1.23;;;8.60;99.90;;;;;;5061592;28;20494;-77
2022/01/03 04:00:33;;;;;;;;;;;8.50;99.90;;;;;;5048356;28;20158;-79
2022/01/03 04:02:59;;;;;;;;;;;8.60;99.90;;;;;;5046832;28;19983;-78
2022/01/03 04:05:25;;;;;;;8.38;2.00;;;8.60;99.90;;;;;;5065997;28;20362;-78
2022/01/03 04:07:51;;;;;;;4.53;1.38;;;8.60;99.90;;;;;;5084681;28;20041;-77
2022/01/03 04:10:17;;;;;;;1.63;1.27;;;8.60;99.90;;;;;;5051689;28;20029;-78
2022/01/03 04:12:46;;;;;;;6.05;1.83;;;8.60;99.90;;;;;;5051170;28;20037;-77
2022/01/03 04:15:13;;;;;;;7.22;2.05;;;8.60;99.90;;;;;;5044646;28;20037;-75
2022/01/03 04:17:39;;;;;;;2.38;1.35;;;8.70;99.90;;;;;;5051061;28;20044;-76
2022/01/03 04:20:07;;;;;;;7.07;2.28;;;8.60;99.90;;;;;;5025818;28;20048;-77
2022/01/03 04:22:32;;;;;;;6.60;1.95;;;8.60;99.90;;;;;;5028584;28;20052;-76
2022/01/03 04:24:58;;;;;;;7.68;1.95;;;8.70;99.90;;;;;;5048130;28;20398;-77
2022/01/03 04:27:24;;;;;;;5.75;2.25;;;8.80;99.90;;;;;;5051081;28;20374;-77
2022/01/03 04:29:50;;;;;;;7.32;2.53;;;8.60;99.90;;;;;;5082011;28;20056;-77
2022/01/03 04:32:16;;;;;;;2.72;1.55;;;8.70;99.90;;;;;;5051271;28;20421;-78
2022/01/03 04:34:42;;;;;;;2.50;1.30;;;8.70;99.90;;;;;;5059798;28;20081;-77
2022/01/03 04:37:08;;;;;;;13.70;2.67;;;8.70;99.90;;;;;;5067106;28;20124;-76
2022/01/03 04:39:34;;;;;;;;;;;8.80;99.90;;;;;;5046224;28;20486;-80
2022/01/03 04:42:00;;;;;;;5.68;1.90;;;8.80;99.90;;;;;;5034970;28;19921;-79
2022/01/03 04:44:25;;;;;;;7.00;2.10;;;8.80;99.90;;;;;;5031312;28;20485;-78
2022/01/03 04:46:53;;;;;;;4.88;1.90;;;8.80;99.90;;;;;;5072377;28;20099;-76
2022/01/03 04:49:18;;;;;;;8.05;1.67;;;8.80;99.90;;;;;;5049285;28;20559;-77
2022/01/03 04:51:44;;;;;;;5.65;1.70;;;8.80;99.90;;;;;;5031108;28;20049;-76
2022/01/03 04:54:10;;;;;;;2.35;1.67;;;8.80;99.90;;;;;;5048575;28;20088;-79
2022/01/03 04:56:36;;;;;;;6.13;1.50;;;8.70;99.90;;;;;;5046265;28;20045;-78
2022/01/03 04:59:02;;;;;;;2.78;1.50;;;8.70;99.90;;;;;;5028004;28;20120;-78
2022/01/03 05:01:28;;;;;;;11.75;1.65;;;8.70;99.90;;;;;;5015789;28;20077;-76
2022/01/03 05:03:54;;;;;;;4.05;1.48;;;8.80;99.90;;;;;;5048046;28;20524;-78
2022/01/03 05:06:20;;;;;;;9.90;1.75;;;8.80;99.90;;;;;;5050374;28;20494;-76
2022/01/03 05:08:46;;;;;;;1.80;1.50;;;8.80;99.90;;;;;;5050035;28;20047;-76
2022/01/03 05:11:12;;;;;;;9.50;2.03;;;8.80;99.90;;;;;;5032350;28;20051;-78
2022/01/03 05:13:38;;;;;;;6.68;1.60;;;8.70;99.90;;;;;;5021014;28;20052;-76
2022/01/03 05:16:04;;;;;;;4.95;1.85;;;8.70;99.90;;;;;;5045859;28;20041;-76
2022/01/03 05:18:30;;;;;;;5.57;1.80;;;8.70;99.90;;;;;;5027507;28;20048;-73
2022/01/03 05:20:56;;;;;;;6.63;1.85;;;8.80;99.90;;;;;;5032889;28;20056;-77
2022/01/03 05:23:23;;;;;;;9.20;2.65;;;8.80;99.90;;;;;;5031334;28;20097;-79
2022/01/03 05:25:49;;;;;;;5.53;1.67;;;8.80;99.90;;;;;;5044572;28;20378;-76
2022/01/03 05:28:15;;;;;;;;;;;8.90;99.90;;;;;;5033157;28;20057;-75
2022/01/03 05:30:41;;;;;;;7.57;1.63;;;8.80;99.90;;;;;;5067113;28;19917;-76
2022/01/03 05:33:07;;;;;;;7.82;1.92;;;8.80;99.90;;;;;;5046422;28;20037;-76
2022/01/03 05:35:33;;;;;;;7.20;2.50;;;8.80;99.90;;;;;;5059123;28;20041;-74
2022/01/03 05:38:04;;;;;;;8.27;1.90;;;8.80;99.90;;;;;;5031483;28;20102;-79
2022/01/03 05:40:30;;;;;;;9.13;2.42;;;8.90;99.90;;;;;;5049593;28;20049;-77
2022/01/03 05:42:55;;;;;;;9.65;2.40;;;8.90;99.90;;;;;;5049254;28;20033;-77
2022/01/03 05:45:22;;;;;;;8.63;2.35;;;8.80;99.90;;;;;;5047538;28;20041;-76
2022/01/03 05:47:47;;;;;;;12.30;3.15;;;8.80;99.90;;;;;;5048723;28;20041;-74
2022/01/03 05:50:16;;;;;;;6.25;2.00;;;8.70;99.90;;;;;;5045234;28;20044;-76
2022/01/03 05:52:41;;;;;;;6.82;1.98;;;8.60;99.90;;;;;;5039221;28;20379;-77
2022/01/03 05:55:08;;;;;;;4.68;1.70;;;8.60;99.90;;;;;;5040159;28;20041;-76
2022/01/03 05:57:34;;;;;;;1.90;1.13;;;8.50;99.90;;;;;;5041910;28;20124;-77
2022/01/03 06:00:02;;;;;;;8.45;1.80;;;8.60;99.90;;;;;;5012318;28;20117;-77
2022/01/03 06:02:31;;;;;;;1.30;0.88;;;8.60;99.90;;;;;;5036068;28;20049;-76
2022/01/03 06:05:01;;;;;;;11.38;2.05;;;8.70;99.90;;;;;;5048448;28;20108;-78
2022/01/03 06:07:27;;;;;;;11.90;2.83;;;8.70;99.90;;;;;;5041137;28;20120;-77
2022/01/03 06:09:52;;;;;;;5.50;1.73;;;8.70;99.90;;;;;;5040741;28;20045;-77
2022/01/03 06:12:18;;;;;;;3.50;1.98;;;8.80;99.90;;;;;;5049481;28;20055;-77
2022/01/03 06:14:45;;;;;;;6.18;1.65;;;8.70;99.90;;;;;;5049895;28;20457;-77
2022/01/03 06:17:11;;;;;;;7.30;2.05;;;8.80;99.90;;;;;;5047342;28;20049;-77
2022/01/03 06:19:37;;;;;;;8.15;2.83;;;8.80;99.90;;;;;;5048917;28;20041;-77
2022/01/03 06:22:07;;;;;;;4.20;2.47;;;8.70;99.90;;;;;;5034617;28;20068;-74
2022/01/03 06:24:33;;;;;;;6.40;2.33;;;8.70;99.90;;;;;;5028684;28;20037;-81
2022/01/03 06:26:59;;;;;;;7.65;1.77;;;8.70;99.90;;;;;;5028595;28;20136;-81
2022/01/03 06:29:25;;;;;;;5.50;1.40;;;8.70;99.90;;;;;;5045679;28;20089;-81
2022/01/03 06:31:51;;;;;;;2.53;1.75;;;9.20;99.90;;;;;;5012057;28;20135;-80
2022/01/03 06:34:17;;;;;;;7.60;2.03;;;8.70;99.90;;;;;;5044017;28;20124;-78
2022/01/03 06:36:43;;;;;;;3.97;1.48;;;8.60;99.90;;;;;;5083409;28;20063;-79
2022/01/03 06:39:11;;;;;;;10.90;2.58;;;8.80;99.90;;;;;;5042450;28;20106;-81
2022/01/03 06:41:38;;;;;;;7.30;2.38;;;8.80;99.90;;;;;;5032786;28;20037;-80
2022/01/03 06:44:05;;;;;;;5.70;1.85;;;8.90;99.90;;;;;;5030076;28;20344;-82
2022/01/03 06:46:30;;;;;;;10.25;2.60;;;8.80;99.90;;;;;;5026957;28;20128;-81
2022/01/03 06:48:56;;;;;;;12.48;2.63;;;8.80;99.90;;;;;;5048665;28;20469;-83
2022/01/03 06:51:23;;;;;;;3.83;1.25;;;8.90;99.90;;;;;;5029580;28;20045;-81
2022/01/03 06:53:49;;;;;;;7.60;2.15;;;8.80;99.90;;;;;;5030952;28;20152;-80
2022/01/03 06:56:15;;;;;;;7.72;1.55;;;8.80;99.90;;;;;;5050359;28;20259;-80
2022/01/03 06:58:42;;;;;;;11.30;1.98;;;8.80;99.90;;;;;;5050759;28;20040;-80
2022/01/03 07:01:09;;;;;;;9.20;1.83;;;8.70;99.90;;;;;;5057320;28;20513;-79
2022/01/03 07:03:35;;;;;;;2.40;1.30;;;8.60;99.90;;;;;;5068217;28;20044;-82
2022/01/03 07:06:01;;;;;;;4.55;1.85;;;8.50;99.90;;;;;;5020730;28;20048;-81
2022/01/03 07:08:26;;;;;;;1.88;1.00;;;8.40;99.90;;;;;;5042542;28;20120;-81
2022/01/03 07:10:52;;;;;;;6.03;1.40;;;8.30;99.90;;;;;;5051397;28;20150;-79
2022/01/03 07:13:18;;;;;;;1.90;1.27;;;8.40;99.90;;;;;;5018890;28;20055;-81
2022/01/03 07:21:13;;;;;;;3.10;1.73;;;8.40;99.90;;;;;;5056380;28;20045;-82
2022/01/03 07:23:40;;;;;;;16.25;2.47;;;8.40;99.90;;;;;;5033992;28;20045;-81
2022/01/03 07:26:06;;;;;;;6.22;2.35;;;8.50;99.90;;;;;;5026714;28;20045;-81
2022/01/03 07:28:31;;;;;;;6.88;2.72;;;8.60;99.90;;;;;;5039204;28;20049;-82
2022/01/03 07:30:57;;;;;;;6.53;2.10;;;8.60;99.90;;;;;;5032471;28;20156;-77
2022/01/03 07:33:23;;;;;;;4.95;1.38;;;10.10;99.90;;;;;;5051379;28;20351;-82
2022/01/03 07:35:52;;;;;;;3.80;1.80;;;8.60;99.90;;;;;;5047907;28;20037;-81
2022/01/03 07:38:18;;;;;;;6.75;1.65;;;8.70;99.90;;;;;;5046347;28;20045;-77
2022/01/03 07:40:43;;;;;;;5.72;1.58;;;9.00;99.90;;;;;;5046486;28;20067;-79
2022/01/03 07:43:09;;;;;;;8.18;2.78;;;8.70;99.90;;;;;;5049350;28;20049;-81
2022/01/03 07:45:35;;;;;;;8.75;1.35;;;8.70;99.90;;;;;;5025962;28;20120;-78
2022/01/03 07:48:01;;;;;;;8.25;2.45;;;8.80;99.90;;;;;;5061435;28;20067;-80
2022/01/03 07:50:28;;;;;;;6.90;1.75;;;8.70;99.90;;;;;;4994106;28;20697;-80
2022/01/03 07:52:54;;;;;;;8.00;2.15;;;8.80;99.90;;;;;;5028056;28;20041;-80
2022/01/03 07:55:20;;;;;;;2.60;1.08;;;8.80;99.90;;;;;;5025879;28;20048;-80
2022/01/03 07:57:45;;;;;;;3.50;2.03;;;8.70;99.90;;;;;;5042989;28;20648;-80
2022/01/03 08:00:14;;;;;;;6.50;1.55;;;8.70;99.90;;;;;;5031284;28;20071;-79
2022/01/03 08:02:41;;;;;;;7.72;2.22;;;8.70;99.90;;;;;;5009621;28;20087;-78
2022/01/03 08:05:09;;;;;;;10.75;2.95;;;8.80;99.90;;;;;;5014858;28;20044;-78
2022/01/03 08:07:35;;;;;;;8.23;2.63;;;8.80;99.90;;;;;;5048462;28;20048;-78
2022/01/03 08:10:02;;;;;;;6.05;1.85;;;8.90;99.90;;;;;;5029953;28;20199;-79
2022/01/03 08:12:28;;;;;;;4.68;2.15;;;9.00;99.90;;;;;;5066187;28;20650;-82
2022/01/03 08:14:54;;;;;;;6.47;1.63;;;8.90;99.90;;;;;;5016330;28;20048;-82
2022/01/03 08:17:20;;;;;;;5.55;1.90;;;7.50;99.90;;;;;;5017019;28;20472;-82
2022/01/03 08:19:46;;;;;;;9.40;2.65;;;9.00;99.90;;;;;;5049972;28;20048;-79
2022/01/03 08:22:11;;;;;;;8.30;2.22;;;9.00;99.90;;;;;;5032251;28;20037;-77
2022/01/03 08:24:37;;;;;;;5.93;1.80;;;9.00;99.90;;;;;;5024286;28;20132;-78
2022/01/03 08:27:03;;;;;;;7.40;2.60;;;9.00;99.90;;;;;;5052456;28;20061;-80
2022/01/03 08:29:29;;;;;;;5.53;2.22;;;9.10;99.90;;;;;;5047682;28;20291;-78
2022/01/03 08:31:55;;;;;;;9.63;1.88;;;9.00;99.90;;;;;;5039867;28;20046;-78
2022/01/03 08:34:21;;;;;;;18.05;2.00;;;9.20;99.90;;;;;;5045368;28;20120;-79
2022/01/03 08:36:46;;;;;;;10.27;2.15;;;9.10;99.90;;;;;;5027646;28;20053;-77
2022/01/03 08:39:12;;;;;;;9.13;2.25;;;9.10;99.90;;;;;;5043490;28;20041;-82
2022/01/03 08:41:38;;;;;;;9.15;2.72;;;9.30;99.90;;;;;;5029014;28;20051;-80
2022/01/03 08:44:05;;;;;;;7.32;1.35;;;9.20;99.90;;;;;;5035948;28;20044;-82
2022/01/03 08:46:31;;;;;;;2.72;1.60;;;9.30;99.90;;;;;;5031132;28;20479;-78
2022/01/03 08:48:57;;;;;;;11.35;2.17;;;9.20;99.90;;;;;;5060550;28;20167;-79
2022/01/03 08:51:23;;;;;;;16.73;1.70;;;9.20;99.90;;;;;;5058326;28;20052;-80
2022/01/03 08:53:49;;;;;;;11.20;1.88;;;9.20;99.90;;;;;;5029439;28;20047;-80
2022/01/03 08:56:15;;;;;;;6.10;2.33;;;9.20;99.90;;;;;;5044785;28;20041;-79
2022/01/03 08:58:40;;;;;;;2.03;1.23;;;9.20;99.90;;;;;;5032045;28;20155;-81
2022/01/03 09:01:06;;;;;;;5.45;1.70;;;9.20;99.90;;;;;;5038381;28;20037;-81
2022/01/03 09:03:32;;;;;;;1.67;1.27;;;9.30;99.90;;;;;;5030866;28;20455;-81
2022/01/03 09:05:59;;;;;;;8.43;2.13;;;9.30;99.90;;;;;;5031641;28;20040;-80
2022/01/03 09:08:25;;;;;;;6.65;1.05;;;9.30;99.90;;;;;;5023080;28;20131;-77
2022/01/03 09:10:52;;;;;;;7.18;1.77;;;9.30;99.90;;;;;;5041100;28;20483;-79
2022/01/03 09:13:18;;;;;;;12.55;2.42;;;9.40;99.90;;;;;;5030359;28;20127;-78
2022/01/03 09:15:46;;;;;;;7.28;1.30;;;9.40;99.90;;;;;;5048354;28;20045;-81
2022/01/03 09:18:18;;;;;;;6.05;1.50;;;9.40;99.90;;;;;;5064367;28;20185;-79
2022/01/03 09:20:45;;;;;;;9.93;1.88;;;9.40;99.90;;;;;;5030982;28;20028;-81
2022/01/03 09:23:17;;;;;;;9.05;1.95;;;9.40;99.90;;;;;;5040967;28;20041;-79
2022/01/03 09:31:12;;;;;;;1.90;1.42;;;9.40;99.90;;;;;;5053946;28;20056;-80
2022/01/03 09:33:38;;;;;;;8.73;2.30;;;9.50;99.90;;;;;;5027183;28;20227;-76
2022/01/03 09:36:04;;;;;;;8.20;1.52;;;9.50;99.90;;;;;;5029679;28;20175;-79
2022/01/03 09:38:30;;;;;;;7.05;1.70;;;9.50;99.90;;;;;;5035325;28;20105;-79
2022/01/03 09:41:01;;;;;;;13.05;2.50;;;9.50;99.90;;;;;;5063292;28;20033;-80
2022/01/03 09:43:28;;;;;;;7.53;1.42;;;9.60;99.90;;;;;;5039263;28;20045;-77
2022/01/03 09:45:54;;;;;;;12.32;3.25;;;9.60;99.90;;;;;;5046334;28;20124;-77
2022/01/03 09:48:21;;;;;;;1.55;0.90;;;9.60;99.90;;;;;;5051357;28;20128;-80
2022/01/03 09:50:49;;;;;;;11.98;2.30;;;9.50;99.90;;;;;;5019974;28;20040;-78
2022/01/03 09:53:18;;;;;;;10.43;1.80;;;9.60;99.90;;;;;;5011515;28;20049;-79
2022/01/03 09:55:46;;;;;;;6.50;1.92;;;9.60;99.90;;;;;;5029794;28;20533;-79
2022/01/03 09:58:14;;;;;;;7.28;1.60;;;9.60;99.90;;;;;;5050696;28;20128;-81
2022/01/03 10:00:41;;;;;;;9.10;1.75;;;9.60;99.90;;;;;;5026246;28;20145;-77
2022/01/03 10:03:06;;;;;;;8.05;1.92;;;9.50;99.90;;;;;;5040264;28;20453;-77
2022/01/03 10:05:33;;;;;;;11.55;2.15;;;9.50;99.90;;;;;;4983758;28;20044;-80
2022/01/03 10:07:58;;;;;;;;;;;9.50;99.90;;;;;;5043671;28;20033;-78
2022/01/03 10:10:27;;;;;;;6.07;1.98;;;9.50;99.90;;;;;;5057995;28;19995;-82
2022/01/03 10:12:53;;;;;;;8.45;1.70;;;9.50;99.90;;;;;;5059371;28;20033;-80
2022/01/03 10:15:19;;;;;;;4.80;1.85;;;9.50;99.90;;;;;;5064394;28;20037;-78
2022/01/03 10:17:47;;;;;;;8.20;2.35;;;9.60;99.90;;;;;;5027769;28;20033;-79
2022/01/03 10:20:13;;;;;;;6.05;1.80;;;9.70;99.90;;;;;;5019086;28;20037;-77
2022/01/03 10:22:42;;;;;;;16.90;2.40;;;9.70;99.90;;;;;;5024868;28;20095;-78
2022/01/03 10:25:14;;;;;;;8.95;1.67;;;9.80;99.90;;;;;;5059719;28;20459;-79
2022/01/03 10:27:53;;;;;;;4.45;1.23;;;9.80;99.90;;;;;;5030578;28;20130;-79
2022/01/03 10:30:38;;;;;;;5.72;1.70;;;9.80;99.90;;;;;;5040193;28;20177;-78
2022/01/03 10:33:06;;;;;;;4.90;1.83;;;9.80;99.90;;;;;;5032501;28;20049;-77
2022/01/03 10:35:43;;;;;;;6.43;1.77;;;10.00;99.90;;;;;;5027600;28;20056;-76
2022/01/03 10:38:09;;;;;;;;;;;9.90;99.90;;;;;;5025678;28;20033;-81
2022/01/03 10:40:37;;;;;;;5.35;1.95;;;9.90;99.90;;;;;;5050628;28;19920;-80
2022/01/03 10:43:15;;;;;;;3.60;1.63;;;9.90;99.90;;;;;;5051725;28;20037;-80
2022/01/03 10:45:42;;;;;;;8.25;1.80;;;10.00;99.90;;;;;;5034658;28;20683;-79
2022/01/03 10:48:27;;;;;;;19.20;3.33;;;10.00;99.90;;;;;;5032111;28;20045;-82
2022/01/03 10:50:55;;;;;;;3.38;1.52;;;10.10;99.90;;;;;;5027240;28;20083;-82
2022/01/03 10:53:41;;;;;;;7.72;2.03;;;10.10;99.90;;;;;;5028700;28;20049;-81
2022/01/03 10:56:28;;;;;;;6.82;2.20;;;10.00;99.90;;;;;;5059724;28;20041;-80
2022/01/03 10:59:22;;;;;;;6.60;2.78;;;10.00;99.90;;;;;;5049178;28;20496;-81
2022/01/03 11:01:50;;;;;;;10.93;2.50;;;10.10;99.90;;;;;;5025799;28;20742;-81
2022/01/03 11:04:53;;;;;;;7.82;2.10;;;10.10;99.90;;;;;;5044313;28;20827;-79
2022/01/03 11:13:13;;;;;;;3.70;1.92;;;10.20;99.90;;;;;;5049893;28;20831;-80
2022/01/03 11:16:00;;;;;;;2.50;1.17;;;10.10;99.90;;;;;;5043896;28;20025;-78
2022/01/03 11:18:29;;;;;;;9.38;2.45;;;10.20;99.90;;;;;;5053792;28;20053;-79
2022/01/03 11:21:18;;;;;;;5.72;2.15;;;10.30;99.90;;;;;;5046465;28;20122;-78
2022/01/03 11:24:01;;;;;;;8.13;2.45;;;10.20;99.90;;;;;;5081056;28;20037;-79
2022/01/03 11:26:30;;;;;;;8.93;1.95;;;10.30;99.90;;;;;;5030327;28;20048;-77
2022/01/03 11:28:57;;;;;;;4.22;1.50;;;10.30;99.90;;;;;;5028822;28;20048;-79
2022/01/03 11:31:23;;;;;;;11.95;2.20;;;10.20;99.90;;;;;;5046559;28;20129;-78
2022/01/03 11:33:52;;;;;;;6.55;2.05;;;10.30;99.90;;;;;;5050001;28;20037;-80
2022/01/03 11:36:22;;;;;;;3.28;1.85;;;10.30;99.90;;;;;;5028625;28;20037;-80
2022/01/03 11:38:48;;;;;;;12.75;2.03;;;10.20;99.90;;;;;;5052992;28;20084;-80
2022/01/03 11:41:15;;;;;;;6.85;2.42;;;10.20;99.90;;;;;;5057552;28;20135;-81
2022/01/03 11:43:43;;;;;;;9.00;2.30;;;10.20;99.90;;;;;;5032939;28;20121;-76
2022/01/03 11:46:09;;;;;;;7.80;2.13;;;10.20;99.90;;;;;;5024332;28;20064;-77
2022/01/03 11:48:35;;;;;;;7.55;1.70;;;10.30;99.90;;;;;;5043918;28;20040;-76
2022/01/03 11:51:05;;;;;;;4.50;1.80;;;10.30;99.90;;;;;;5024442;28;20525;-76
2022/01/03 11:53:34;;;;;;;3.30;0.68;;;10.30;99.90;;;;;;5047515;28;20060;-77
2022/01/03 11:56:04;;;;;;;10.15;2.08;;;10.30;99.90;;;;;;5046533;28;20127;-79
2022/01/03 12:04:08;;;;;;;7.95;2.28;;;10.40;99.90;;;;;;5032949;28;20109;-77
2022/01/03 12:06:35;;;;;;;6.28;2.10;;;10.40;99.90;;;;;;5049273;28;20120;-80
2022/01/03 12:09:06;;;;;;;7.22;1.77;;;10.40;99.90;;;;;;5058591;28;20045;-78
2022/01/03 12:11:32;;;;;;;10.50;1.63;;;10.40;99.90;;;;;;5031379;28;20131;-79
2022/01/03 12:14:04;;;;;;;;;;;9.90;99.90;;;;;;5048521;28;20112;-78
2022/01/03 12:16:42;;;;;;;9.63;1.85;;;10.50;99.90;;;;;;5032154;28;19929;-78
2022/01/03 12:19:12;;;;;;;12.30;2.13;;;10.50;99.90;;;;;;5042315;28;20044;-79
2022/01/03 12:21:50;;;;;;;10.55;2.58;;;10.50;99.90;;;;;;5031405;28;20081;-76
2022/01/03 12:24:41;;;;;;;12.35;2.35;;;10.50;99.90;;;;;;5043036;28;20043;-79
2022/01/03 12:27:12;;;;;;;1.75;1.10;;;10.40;99.90;;;;;;5071160;28;20524;-79
2022/01/03 12:29:56;;;;;;;7.13;1.50;;;10.40;99.90;;;;;;5027681;28;20053;-78
2022/01/03 12:32:54;;;;;;;7.10;1.50;;;10.30;99.90;;;;;;5044650;28;20075;-80
2022/01/03 12:35:23;;;;;;;4.00;1.63;;;10.30;99.90;;;;;;5043473;28;20057;-81
2022/01/03 12:37:52;;;;;;;8.45;1.95;;;10.20;99.90;;;;;;5046942;28;20509;-81
2022/01/03 12:40:21;;;;;;;11.05;1.98;;;10.10;99.90;;;;;;5047713;28;20490;-78
2022/01/03 12:42:51;;;;;;;6.40;1.77;;;10.20;99.90;;;;;;5030992;28;20075;-79
2022/01/03 12:45:28;;;;;;;5.68;1.55;;;10.20;99.90;;;;;;5065918;28;20064;-76
2022/01/03 12:48:15;;;;;;;9.48;2.55;;;10.30;99.90;;;;;;5025075;28;20041;-77
2022/01/03 12:50:53;;;;;;;7.68;2.05;;;10.30;99.90;;;;;;5037202;28;20079;-80
2022/01/03 12:53:28;;;;;;;6.63;2.10;;;10.30;99.90;;;;;;5071650;28;20056;-78
2022/01/03 12:56:16;;;;;;;6.82;2.30;;;10.40;99.90;;;;;;5047928;28;20037;-83
2022/01/03 12:58:45;;;;;;;4.65;0.88;;;10.40;99.90;;;;;;5043607;28;20456;-82
2022/01/03 13:01:11;;;;;;;2.08;1.42;;;10.40;99.90;;;;;;5048470;28;20040;-77
2022/01/03 13:03:39;;;;;;;6.82;4.13;;;10.40;99.90;;;;;;5028566;28;20041;-81
2022/01/03 13:06:13;;;;;;;6.50;4.20;;;10.40;99.90;;;;;;5023665;28;20048;-78
2022/01/03 13:08:48;;;;;;;4.43;2.25;;;10.40;99.90;;;;;;5019954;28;20776;-82
2022/01/03 13:11:16;;;;;;;9.63;2.42;;;10.40;99.90;;;;;;5065892;28;20567;-79
2022/01/03 13:13:45;;;;;;;9.50;2.65;;;10.40;99.90;;;;;;5041261;28;20060;-76
2022/01/03 13:16:29;;;;;;;6.32;2.42;;;10.40;99.90;;;;;;5048038;28;20060;-80
2022/01/03 13:18:56;;;;;;;6.68;1.92;;;10.50;99.90;;;;;;5070169;28;20045;-77
2022/01/03 13:21:24;;;;;;;9.18;2.60;;;10.40;99.90;;;;;;5018450;28;20176;-80
2022/01/03 13:23:53;;;;;;;8.10;2.40;;;10.40;99.90;;;;;;5040589;28;20124;-81
2022/01/03 13:26:20;;;;;;;5.35;2.25;;;10.40;99.90;;;;;;5043283;28;20117;-78
2022/01/03 13:28:52;;;;;;;3.92;2.25;;;10.50;99.90;;;;;;5062986;28;20490;-76